sensor_id;sensor_type;location;lat;lon;timestamp;P1;durP1;ratioP1;P2;durP2;ratioP2
15608;SDS011;63250;45.642;13.758;2022-09-09T00:06:23;6.35;;;5.85;;
15608;SDS011;63250;45.642;13.758;2022-09-09T00:09:12;8.50;;;6.25;;
15608;SDS011;63250;45.642;13.758;2022-09-09T00:11:43;5.90;;;5.40;;
15608;SDS011;63250;45.642;13.758;2022-09-09T00:14:54;5.93;;;5.32;;
15608;SDS011;63250;45.642;13.758;2022-09-09T00:16:56;6.32;;;5.45;;
15608;SDS011;63250;45.642;13.758;2022-09-09T00:19:29;5.82;;;5.35;;
15608;SDS011;63250;45.642;13.758;2022-09-09T00:22:20;6.07;;;5.47;;
15608;SDS011;63250;45.642;13.758;2022-09-09T00:24:52;7.72;;;6.10;;
15608;SDS011;63250;45.642;13.758;2022-09-09T00:27:33;5.40;;;4.90;;
15608;SDS011;63250;45.642;13.758;2022-09-09T00:30:24;5.63;;;5.13;;
15608;SDS011;63250;45.642;13.758;2022-09-09T00:32:59;6.80;;;5.43;;
15608;SDS011;63250;45.642;13.758;2022-09-09T00:35:34;5.38;;;4.88;;
15608;SDS011;63250;45.642;13.758;2022-09-09T00:38:26;5.95;;;4.90;;
15608;SDS011;63250;45.642;13.758;2022-09-09T00:43:28;4.45;;;4.05;;
15608;SDS011;63250;45.642;13.758;2022-09-09T00:54:07;5.50;;;4.03;;
15608;SDS011;63250;45.642;13.758;2022-09-09T00:56:58;6.18;;;3.78;;
15608;SDS011;63250;45.642;13.758;2022-09-09T00:59:56;4.22;;;3.47;;
15608;SDS011;63250;45.642;13.758;2022-09-09T01:11:10;4.82;;;3.58;;
15608;SDS011;63250;45.642;13.758;2022-09-09T01:13:46;4.72;;;3.80;;
15608;SDS011;63250;45.642;13.758;2022-09-09T01:16:18;4.85;;;3.50;;
15608;SDS011;63250;45.642;13.758;2022-09-09T01:18:45;7.00;;;6.40;;
15608;SDS011;63250;45.642;13.758;2022-09-09T01:26:45;4.32;;;3.90;;
15608;SDS011;63250;45.642;13.758;2022-09-09T01:29:13;4.10;;;3.70;;
15608;SDS011;63250;45.642;13.758;2022-09-09T01:31:54;3.83;;;3.53;;
15608;SDS011;63250;45.642;13.758;2022-09-09T01:34:21;5.45;;;3.20;;
15608;SDS011;63250;45.642;13.758;2022-09-09T01:39:24;4.03;;;3.40;;
15608;SDS011;63250;45.642;13.758;2022-09-09T01:41:50;3.45;;;3.15;;
15608;SDS011;63250;45.642;13.758;2022-09-09T01:44:17;3.28;;;2.97;;
15608;SDS011;63250;45.642;13.758;2022-09-09T01:46:44;5.43;;;3.53;;
15608;SDS011;63250;45.642;13.758;2022-09-09T01:49:10;3.92;;;3.15;;
15608;SDS011;63250;45.642;13.758;2022-09-09T01:51:36;3.47;;;3.10;;
15608;SDS011;63250;45.642;13.758;2022-09-09T01:54:03;10.10;;;3.22;;
15608;SDS011;63250;45.642;13.758;2022-09-09T01:56:35;4.20;;;3.33;;
15608;SDS011;63250;45.642;13.758;2022-09-09T02:02:18;6.18;;;3.55;;
15608;SDS011;63250;45.642;13.758;2022-09-09T02:04:45;3.60;;;3.30;;
15608;SDS011;63250;45.642;13.758;2022-09-09T02:07:19;3.17;;;2.88;;
15608;SDS011;63250;45.642;13.758;2022-09-09T02:10:17;4.70;;;3.33;;
15608;SDS011;63250;45.642;13.758;2022-09-09T02:12:51;4.28;;;3.20;;
15608;SDS011;63250;45.642;13.758;2022-09-09T02:15:28;4.97;;;3.47;;
15608;SDS011;63250;45.642;13.758;2022-09-09T02:17:54;5.60;;;3.60;;
15608;SDS011;63250;45.642;13.758;2022-09-09T02:20:24;4.07;;;2.95;;
15608;SDS011;63250;45.642;13.758;2022-09-09T02:22:52;7.38;;;3.60;;
15608;SDS011;63250;45.642;13.758;2022-09-09T02:25:19;5.85;;;3.40;;
15608;SDS011;63250;45.642;13.758;2022-09-09T02:27:49;5.10;;;3.35;;
15608;SDS011;63250;45.642;13.758;2022-09-09T02:30:19;4.03;;;3.63;;
15608;SDS011;63250;45.642;13.758;2022-09-09T02:32:45;4.03;;;3.30;;
15608;SDS011;63250;45.642;13.758;2022-09-09T02:35:15;4.38;;;3.08;;
15608;SDS011;63250;45.642;13.758;2022-09-09T02:37:46;3.35;;;2.97;;
15608;SDS011;63250;45.642;13.758;2022-09-09T02:40:12;3.22;;;2.90;;
15608;SDS011;63250;45.642;13.758;2022-09-09T02:42:41;4.00;;;3.15;;
15608;SDS011;63250;45.642;13.758;2022-09-09T02:45:08;3.25;;;2.65;;
15608;SDS011;63250;45.642;13.758;2022-09-09T02:50:13;5.70;;;2.47;;
15608;SDS011;63250;45.642;13.758;2022-09-09T02:58:09;3.95;;;2.25;;
15608;SDS011;63250;45.642;13.758;2022-09-09T03:00:37;2.67;;;2.17;;
15608;SDS011;63250;45.642;13.758;2022-09-09T03:03:07;2.13;;;1.95;;
15608;SDS011;63250;45.642;13.758;2022-09-09T03:05:36;3.50;;;2.53;;
15608;SDS011;63250;45.642;13.758;2022-09-09T03:08:03;2.33;;;2.00;;
15608;SDS011;63250;45.642;13.758;2022-09-09T03:10:30;2.25;;;2.05;;
15608;SDS011;63250;45.642;13.758;2022-09-09T03:12:56;2.60;;;1.75;;
15608;SDS011;63250;45.642;13.758;2022-09-09T03:15:22;1.95;;;1.75;;
15608;SDS011;63250;45.642;13.758;2022-09-09T03:17:47;2.38;;;2.03;;
15608;SDS011;63250;45.642;13.758;2022-09-09T03:20:13;4.60;;;1.90;;
15608;SDS011;63250;45.642;13.758;2022-09-09T03:22:39;2.05;;;1.67;;
15608;SDS011;63250;45.642;13.758;2022-09-09T03:25:05;1.65;;;1.48;;
15608;SDS011;63250;45.642;13.758;2022-09-09T03:27:31;3.15;;;1.80;;
15608;SDS011;63250;45.642;13.758;2022-09-09T03:29:57;3.17;;;2.03;;
15608;SDS011;63250;45.642;13.758;2022-09-09T03:32:23;1.85;;;1.60;;
15608;SDS011;63250;45.642;13.758;2022-09-09T03:34:50;2.60;;;1.70;;
15608;SDS011;63250;45.642;13.758;2022-09-09T03:37:17;1.83;;;1.70;;
15608;SDS011;63250;45.642;13.758;2022-09-09T03:39:45;1.98;;;1.80;;
15608;SDS011;63250;45.642;13.758;2022-09-09T03:42:14;2.40;;;2.10;;
15608;SDS011;63250;45.642;13.758;2022-09-09T03:44:43;2.00;;;1.80;;
15608;SDS011;63250;45.642;13.758;2022-09-09T03:47:14;2.53;;;1.70;;
15608;SDS011;63250;45.642;13.758;2022-09-09T03:49:44;1.52;;;1.42;;
15608;SDS011;63250;45.642;13.758;2022-09-09T03:52:10;1.98;;;1.70;;
15608;SDS011;63250;45.642;13.758;2022-09-09T03:54:36;1.77;;;1.50;;
15608;SDS011;63250;45.642;13.758;2022-09-09T03:57:02;3.28;;;1.60;;
15608;SDS011;63250;45.642;13.758;2022-09-09T03:59:29;1.58;;;1.48;;
15608;SDS011;63250;45.642;13.758;2022-09-09T04:01:55;2.53;;;1.80;;
15608;SDS011;63250;45.642;13.758;2022-09-09T04:04:22;3.10;;;1.80;;
15608;SDS011;63250;45.642;13.758;2022-09-09T04:06:48;2.05;;;1.83;;
15608;SDS011;63250;45.642;13.758;2022-09-09T04:09:14;1.85;;;1.63;;
15608;SDS011;63250;45.642;13.758;2022-09-09T04:11:40;3.75;;;2.10;;
15608;SDS011;63250;45.642;13.758;2022-09-09T04:14:05;3.30;;;2.58;;
15608;SDS011;63250;45.642;13.758;2022-09-09T04:16:32;2.38;;;1.90;;
15608;SDS011;63250;45.642;13.758;2022-09-09T04:18:58;2.28;;;1.90;;
15608;SDS011;63250;45.642;13.758;2022-09-09T04:21:25;1.80;;;1.70;;
15608;SDS011;63250;45.642;13.758;2022-09-09T04:23:51;4.20;;;1.90;;
15608;SDS011;63250;45.642;13.758;2022-09-09T04:26:17;2.40;;;1.80;;
15608;SDS011;63250;45.642;13.758;2022-09-09T04:28:43;3.03;;;1.80;;
15608;SDS011;63250;45.642;13.758;2022-09-09T04:31:16;2.75;;;2.38;;
15608;SDS011;63250;45.642;13.758;2022-09-09T04:33:45;2.20;;;1.88;;
15608;SDS011;63250;45.642;13.758;2022-09-09T04:36:11;3.22;;;2.08;;
15608;SDS011;63250;45.642;13.758;2022-09-09T04:38:38;3.53;;;2.35;;
15608;SDS011;63250;45.642;13.758;2022-09-09T04:41:04;2.92;;;2.15;;
15608;SDS011;63250;45.642;13.758;2022-09-09T04:43:30;3.20;;;2.38;;
15608;SDS011;63250;45.642;13.758;2022-09-09T04:45:56;3.47;;;2.50;;
15608;SDS011;63250;45.642;13.758;2022-09-09T04:48:24;4.50;;;2.50;;
15608;SDS011;63250;45.642;13.758;2022-09-09T04:50:54;2.80;;;1.92;;
15608;SDS011;63250;45.642;13.758;2022-09-09T04:53:29;3.08;;;2.28;;
15608;SDS011;63250;45.642;13.758;2022-09-09T04:56:06;2.90;;;2.10;;
15608;SDS011;63250;45.642;13.758;2022-09-09T04:58:35;4.55;;;2.67;;
15608;SDS011;63250;45.642;13.758;2022-09-09T05:01:09;5.80;;;2.55;;
15608;SDS011;63250;45.642;13.758;2022-09-09T05:03:39;3.35;;;2.33;;
15608;SDS011;63250;45.642;13.758;2022-09-09T05:06:06;2.88;;;2.60;;
15608;SDS011;63250;45.642;13.758;2022-09-09T05:08:34;4.15;;;2.50;;
15608;SDS011;63250;45.642;13.758;2022-09-09T05:11:04;3.15;;;2.30;;
15608;SDS011;63250;45.642;13.758;2022-09-09T05:13:41;4.50;;;2.45;;
15608;SDS011;63250;45.642;13.758;2022-09-09T05:16:07;3.45;;;2.47;;
15608;SDS011;63250;45.642;13.758;2022-09-09T05:18:35;6.63;;;2.92;;
15608;SDS011;63250;45.642;13.758;2022-09-09T05:21:01;4.18;;;2.58;;
15608;SDS011;63250;45.642;13.758;2022-09-09T05:23:27;4.45;;;2.53;;
15608;SDS011;63250;45.642;13.758;2022-09-09T05:25:54;4.18;;;2.65;;
15608;SDS011;63250;45.642;13.758;2022-09-09T05:28:21;3.10;;;2.78;;
15608;SDS011;63250;45.642;13.758;2022-09-09T05:30:59;4.63;;;2.83;;
15608;SDS011;63250;45.642;13.758;2022-09-09T05:33:29;3.63;;;2.75;;
15608;SDS011;63250;45.642;13.758;2022-09-09T05:38:24;4.07;;;3.17;;
15608;SDS011;63250;45.642;13.758;2022-09-09T05:40:50;6.53;;;3.17;;
15608;SDS011;63250;45.642;13.758;2022-09-09T05:43:17;3.67;;;2.80;;
15608;SDS011;63250;45.642;13.758;2022-09-09T05:45:45;4.43;;;3.15;;
15608;SDS011;63250;45.642;13.758;2022-09-09T05:48:13;6.47;;;3.60;;
15608;SDS011;63250;45.642;13.758;2022-09-09T05:50:42;4.63;;;3.20;;
15608;SDS011;63250;45.642;13.758;2022-09-09T05:53:10;5.18;;;3.08;;
15608;SDS011;63250;45.642;13.758;2022-09-09T05:55:35;5.40;;;3.00;;
15608;SDS011;63250;45.642;13.758;2022-09-09T05:58:01;3.60;;;3.30;;
15608;SDS011;63250;45.642;13.758;2022-09-09T06:00:27;4.38;;;3.30;;
15608;SDS011;63250;45.642;13.758;2022-09-09T06:02:54;2.83;;;2.63;;
15608;SDS011;63250;45.642;13.758;2022-09-09T06:05:20;4.38;;;2.75;;
15608;SDS011;63250;45.642;13.758;2022-09-09T06:07:47;3.72;;;2.88;;
15608;SDS011;63250;45.642;13.758;2022-09-09T06:10:17;3.55;;;3.20;;
15608;SDS011;63250;45.642;13.758;2022-09-09T06:12:42;3.60;;;2.72;;
15608;SDS011;63250;45.642;13.758;2022-09-09T06:15:08;4.68;;;3.70;;
15608;SDS011;63250;45.642;13.758;2022-09-09T06:17:34;4.15;;;3.45;;
15608;SDS011;63250;45.642;13.758;2022-09-09T06:20:00;3.47;;;3.05;;
15608;SDS011;63250;45.642;13.758;2022-09-09T06:22:25;6.00;;;3.30;;
15608;SDS011;63250;45.642;13.758;2022-09-09T06:24:51;4.50;;;3.20;;
15608;SDS011;63250;45.642;13.758;2022-09-09T06:27:18;3.45;;;3.15;;
15608;SDS011;63250;45.642;13.758;2022-09-09T06:29:43;4.45;;;3.42;;
15608;SDS011;63250;45.642;13.758;2022-09-09T06:32:09;4.25;;;3.35;;
15608;SDS011;63250;45.642;13.758;2022-09-09T06:34:35;4.07;;;3.30;;
15608;SDS011;63250;45.642;13.758;2022-09-09T06:37:01;4.00;;;2.80;;
15608;SDS011;63250;45.642;13.758;2022-09-09T06:39:27;3.70;;;3.10;;
15608;SDS011;63250;45.642;13.758;2022-09-09T06:41:53;4.10;;;2.88;;
15608;SDS011;63250;45.642;13.758;2022-09-09T06:44:19;7.03;;;3.65;;
15608;SDS011;63250;45.642;13.758;2022-09-09T06:46:45;3.47;;;3.00;;
15608;SDS011;63250;45.642;13.758;2022-09-09T06:49:13;4.30;;;3.10;;
15608;SDS011;63250;45.642;13.758;2022-09-09T06:51:39;3.65;;;3.30;;
15608;SDS011;63250;45.642;13.758;2022-09-09T06:54:07;3.08;;;2.75;;
15608;SDS011;63250;45.642;13.758;2022-09-09T06:56:34;3.22;;;2.85;;
15608;SDS011;63250;45.642;13.758;2022-09-09T06:59:03;8.35;;;3.58;;
15608;SDS011;63250;45.642;13.758;2022-09-09T07:01:33;3.70;;;2.70;;
15608;SDS011;63250;45.642;13.758;2022-09-09T07:04:01;5.88;;;3.10;;
15608;SDS011;63250;45.642;13.758;2022-09-09T07:06:30;5.90;;;3.30;;
15608;SDS011;63250;45.642;13.758;2022-09-09T07:08:58;3.33;;;3.05;;
15608;SDS011;63250;45.642;13.758;2022-09-09T07:11:26;4.05;;;2.83;;
15608;SDS011;63250;45.642;13.758;2022-09-09T07:13:53;5.28;;;3.00;;
15608;SDS011;63250;45.642;13.758;2022-09-09T07:16:20;5.28;;;3.25;;
15608;SDS011;63250;45.642;13.758;2022-09-09T07:18:49;5.68;;;3.40;;
15608;SDS011;63250;45.642;13.758;2022-09-09T07:21:16;4.35;;;2.58;;
15608;SDS011;63250;45.642;13.758;2022-09-09T07:23:42;3.80;;;2.70;;
15608;SDS011;63250;45.642;13.758;2022-09-09T07:26:09;3.13;;;2.40;;
15608;SDS011;63250;45.642;13.758;2022-09-09T07:28:36;5.82;;;3.00;;
15608;SDS011;63250;45.642;13.758;2022-09-09T07:31:03;4.22;;;2.83;;
15608;SDS011;63250;45.642;13.758;2022-09-09T07:33:31;7.43;;;2.92;;
15608;SDS011;63250;45.642;13.758;2022-09-09T07:36:17;6.05;;;3.05;;
15608;SDS011;63250;45.642;13.758;2022-09-09T07:38:47;4.78;;;3.13;;
15608;SDS011;63250;45.642;13.758;2022-09-09T07:41:17;5.05;;;2.40;;
15608;SDS011;63250;45.642;13.758;2022-09-09T07:43:46;3.92;;;2.78;;
15608;SDS011;63250;45.642;13.758;2022-09-09T07:46:13;6.60;;;2.40;;
15608;SDS011;63250;45.642;13.758;2022-09-09T07:48:44;3.30;;;2.65;;
15608;SDS011;63250;45.642;13.758;2022-09-09T07:51:21;7.55;;;3.33;;
15608;SDS011;63250;45.642;13.758;2022-09-09T07:53:51;7.63;;;2.92;;
15608;SDS011;63250;45.642;13.758;2022-09-09T07:56:19;3.97;;;2.45;;
15608;SDS011;63250;45.642;13.758;2022-09-09T07:58:48;6.05;;;3.05;;
15608;SDS011;63250;45.642;13.758;2022-09-09T08:01:15;3.35;;;2.47;;
15608;SDS011;63250;45.642;13.758;2022-09-09T08:03:46;4.55;;;3.00;;
15608;SDS011;63250;45.642;13.758;2022-09-09T08:06:17;3.50;;;2.63;;
15608;SDS011;63250;45.642;13.758;2022-09-09T08:08:43;4.82;;;2.85;;
15608;SDS011;63250;45.642;13.758;2022-09-09T08:11:10;4.82;;;2.88;;
15608;SDS011;63250;45.642;13.758;2022-09-09T08:13:37;2.95;;;2.65;;
15608;SDS011;63250;45.642;13.758;2022-09-09T08:16:05;3.72;;;2.50;;
15608;SDS011;63250;45.642;13.758;2022-09-09T08:18:31;6.13;;;2.78;;
15608;SDS011;63250;45.642;13.758;2022-09-09T08:20:56;2.88;;;2.67;;
15608;SDS011;63250;45.642;13.758;2022-09-09T08:23:22;5.93;;;2.47;;
15608;SDS011;63250;45.642;13.758;2022-09-09T08:25:48;5.90;;;3.20;;
15608;SDS011;63250;45.642;13.758;2022-09-09T08:28:15;6.20;;;3.33;;
15608;SDS011;63250;45.642;13.758;2022-09-09T08:30:40;6.78;;;3.42;;
15608;SDS011;63250;45.642;13.758;2022-09-09T08:33:07;7.10;;;3.38;;
15608;SDS011;63250;45.642;13.758;2022-09-09T08:35:34;5.05;;;2.85;;
15608;SDS011;63250;45.642;13.758;2022-09-09T08:37:59;7.72;;;3.38;;
15608;SDS011;63250;45.642;13.758;2022-09-09T08:40:27;5.53;;;3.33;;
15608;SDS011;63250;45.642;13.758;2022-09-09T08:42:57;9.73;;;3.20;;
15608;SDS011;63250;45.642;13.758;2022-09-09T08:50:35;8.23;;;3.08;;
15608;SDS011;63250;45.642;13.758;2022-09-09T08:55:48;7.57;;;4.03;;
15608;SDS011;63250;45.642;13.758;2022-09-09T08:58:31;5.22;;;3.65;;
15608;SDS011;63250;45.642;13.758;2022-09-09T09:12:20;4.43;;;3.45;;
15608;SDS011;63250;45.642;13.758;2022-09-09T09:14:49;4.00;;;3.60;;
15608;SDS011;63250;45.642;13.758;2022-09-09T09:17:17;7.82;;;3.55;;
15608;SDS011;63250;45.642;13.758;2022-09-09T09:19:44;4.35;;;3.15;;
15608;SDS011;63250;45.642;13.758;2022-09-09T09:24:53;3.90;;;3.50;;
15608;SDS011;63250;45.642;13.758;2022-09-09T09:27:48;3.92;;;3.50;;
15608;SDS011;63250;45.642;13.758;2022-09-09T09:30:38;6.57;;;3.90;;
15608;SDS011;63250;45.642;13.758;2022-09-09T09:35:58;8.55;;;4.30;;
15608;SDS011;63250;45.642;13.758;2022-09-09T09:38:25;10.68;;;4.35;;
15608;SDS011;63250;45.642;13.758;2022-09-09T09:40:53;7.85;;;3.97;;
15608;SDS011;63250;45.642;13.758;2022-09-09T09:43:24;9.65;;;3.78;;
15608;SDS011;63250;45.642;13.758;2022-09-09T09:45:54;8.20;;;3.10;;
15608;SDS011;63250;45.642;13.758;2022-09-09T09:48:23;5.50;;;2.33;;
15608;SDS011;63250;45.642;13.758;2022-09-09T09:55:49;4.93;;;1.75;;
15608;SDS011;63250;45.642;13.758;2022-09-09T10:01:23;8.20;;;3.40;;
15608;SDS011;63250;45.642;13.758;2022-09-09T10:03:54;9.68;;;3.78;;
15608;SDS011;63250;45.642;13.758;2022-09-09T10:06:29;7.13;;;2.85;;
15608;SDS011;63250;45.642;13.758;2022-09-09T10:08:59;10.60;;;3.20;;
15608;SDS011;63250;45.642;13.758;2022-09-09T10:16:48;5.15;;;3.05;;
15608;SDS011;63250;45.642;13.758;2022-09-09T10:19:39;9.02;;;4.38;;
15608;SDS011;63250;45.642;13.758;2022-09-09T10:22:27;11.27;;;3.90;;
15608;SDS011;63250;45.642;13.758;2022-09-09T10:36:20;24.92;;;11.20;;
15608;SDS011;63250;45.642;13.758;2022-09-09T10:39:04;14.18;;;8.27;;
15608;SDS011;63250;45.642;13.758;2022-09-09T10:46:49;14.02;;;8.05;;
15608;SDS011;63250;45.642;13.758;2022-09-09T10:57:29;6.07;;;3.65;;
15608;SDS011;63250;45.642;13.758;2022-09-09T11:00:05;4.50;;;2.75;;
15608;SDS011;63250;45.642;13.758;2022-09-09T11:02:39;5.40;;;3.13;;
15608;SDS011;63250;45.642;13.758;2022-09-09T11:05:10;4.13;;;3.03;;
15608;SDS011;63250;45.642;13.758;2022-09-09T11:07:44;5.70;;;3.47;;
15608;SDS011;63250;45.642;13.758;2022-09-09T11:13:22;5.40;;;4.90;;
15608;SDS011;63250;45.642;13.758;2022-09-09T11:15:53;12.40;;;7.43;;
15608;SDS011;63250;45.642;13.758;2022-09-09T11:18:31;15.32;;;5.22;;
15608;SDS011;63250;45.642;13.758;2022-09-09T11:21:04;5.57;;;3.55;;
15608;SDS011;63250;45.642;13.758;2022-09-09T11:23:39;4.68;;;2.88;;
15608;SDS011;63250;45.642;13.758;2022-09-09T11:26:16;5.40;;;2.85;;
15608;SDS011;63250;45.642;13.758;2022-09-09T11:31:41;2.80;;;1.90;;
15608;SDS011;63250;45.642;13.758;2022-09-09T11:37:27;2.85;;;1.92;;
15608;SDS011;63250;45.642;13.758;2022-09-09T11:42:20;3.35;;;1.77;;
15608;SDS011;63250;45.642;13.758;2022-09-09T11:44:48;2.13;;;1.63;;
15608;SDS011;63250;45.642;13.758;2022-09-09T11:47:22;2.42;;;2.00;;
15608;SDS011;63250;45.642;13.758;2022-09-09T11:49:51;2.45;;;1.90;;
15608;SDS011;63250;45.642;13.758;2022-09-09T11:52:24;1.75;;;1.60;;
15608;SDS011;63250;45.642;13.758;2022-09-09T11:57:37;1.95;;;1.70;;
15608;SDS011;63250;45.642;13.758;2022-09-09T12:00:04;2.13;;;1.58;;
15608;SDS011;63250;45.642;13.758;2022-09-09T12:02:31;2.90;;;1.73;;
15608;SDS011;63250;45.642;13.758;2022-09-09T12:07:38;2.38;;;1.42;;
15608;SDS011;63250;45.642;13.758;2022-09-09T12:10:20;4.00;;;1.95;;
15608;SDS011;63250;45.642;13.758;2022-09-09T12:12:54;1.48;;;1.38;;
15608;SDS011;63250;45.642;13.758;2022-09-09T12:15:27;1.85;;;1.52;;
15608;SDS011;63250;45.642;13.758;2022-09-09T12:17:54;1.80;;;1.30;;
15608;SDS011;63250;45.642;13.758;2022-09-09T12:20:35;2.83;;;1.42;;
15608;SDS011;63250;45.642;13.758;2022-09-09T12:26:10;3.72;;;1.52;;
15608;SDS011;63250;45.642;13.758;2022-09-09T12:31:57;4.20;;;1.58;;
15608;SDS011;63250;45.642;13.758;2022-09-09T12:37:06;1.75;;;1.30;;
15608;SDS011;63250;45.642;13.758;2022-09-09T12:39:59;3.33;;;1.35;;
15608;SDS011;63250;45.642;13.758;2022-09-09T12:42:27;3.65;;;1.85;;
15608;SDS011;63250;45.642;13.758;2022-09-09T12:44:54;2.13;;;1.40;;
15608;SDS011;63250;45.642;13.758;2022-09-09T12:47:23;2.47;;;1.80;;
15608;SDS011;63250;45.642;13.758;2022-09-09T12:50:10;2.67;;;1.77;;
15608;SDS011;63250;45.642;13.758;2022-09-09T12:52:46;3.58;;;1.80;;
15608;SDS011;63250;45.642;13.758;2022-09-09T12:55:18;3.00;;;1.38;;
15608;SDS011;63250;45.642;13.758;2022-09-09T12:57:52;2.70;;;1.75;;
15608;SDS011;63250;45.642;13.758;2022-09-09T13:00:20;4.07;;;1.92;;
15608;SDS011;63250;45.642;13.758;2022-09-09T13:02:54;2.97;;;1.63;;
15608;SDS011;63250;45.642;13.758;2022-09-09T13:05:23;3.30;;;1.77;;
15608;SDS011;63250;45.642;13.758;2022-09-09T13:07:50;4.70;;;1.88;;
15608;SDS011;63250;45.642;13.758;2022-09-09T13:10:21;2.25;;;1.70;;
15608;SDS011;63250;45.642;13.758;2022-09-09T13:12:52;3.67;;;1.88;;
15608;SDS011;63250;45.642;13.758;2022-09-09T13:15:20;3.00;;;2.10;;
15608;SDS011;63250;45.642;13.758;2022-09-09T13:17:49;2.45;;;1.70;;
15608;SDS011;63250;45.642;13.758;2022-09-09T13:20:20;1.90;;;1.80;;
15608;SDS011;63250;45.642;13.758;2022-09-09T13:22:47;2.55;;;1.70;;
15608;SDS011;63250;45.642;13.758;2022-09-09T13:25:23;2.83;;;1.88;;
15608;SDS011;63250;45.642;13.758;2022-09-09T13:38:16;5.78;;;2.85;;
15608;SDS011;63250;45.642;13.758;2022-09-09T13:40:52;5.70;;;2.08;;
15608;SDS011;63250;45.642;13.758;2022-09-09T13:43:24;3.05;;;1.88;;
15608;SDS011;63250;45.642;13.758;2022-09-09T13:46:01;2.20;;;1.75;;
15608;SDS011;63250;45.642;13.758;2022-09-09T13:48:28;2.42;;;1.90;;
15608;SDS011;63250;45.642;13.758;2022-09-09T13:51:00;3.13;;;1.98;;
15608;SDS011;63250;45.642;13.758;2022-09-09T13:53:30;2.45;;;2.20;;
15608;SDS011;63250;45.642;13.758;2022-09-09T13:55:56;2.70;;;2.00;;
15608;SDS011;63250;45.642;13.758;2022-09-09T13:58:23;2.78;;;2.30;;
15608;SDS011;63250;45.642;13.758;2022-09-09T14:00:50;3.60;;;2.35;;
15608;SDS011;63250;45.642;13.758;2022-09-09T14:03:17;2.90;;;2.20;;
15608;SDS011;63250;45.642;13.758;2022-09-09T14:05:43;2.20;;;2.00;;
15608;SDS011;63250;45.642;13.758;2022-09-09T14:08:11;2.97;;;1.70;;
15608;SDS011;63250;45.642;13.758;2022-09-09T14:10:45;3.75;;;2.13;;
15608;SDS011;63250;45.642;13.758;2022-09-09T14:13:11;3.47;;;2.15;;
15608;SDS011;63250;45.642;13.758;2022-09-09T14:15:37;3.17;;;2.80;;
15608;SDS011;63250;45.642;13.758;2022-09-09T14:18:03;5.78;;;2.80;;
15608;SDS011;63250;45.642;13.758;2022-09-09T14:20:29;2.75;;;2.50;;
15608;SDS011;63250;45.642;13.758;2022-09-09T14:22:55;4.45;;;2.25;;
15608;SDS011;63250;45.642;13.758;2022-09-09T14:25:22;3.53;;;2.80;;
15608;SDS011;63250;45.642;13.758;2022-09-09T14:27:48;4.75;;;3.40;;
15608;SDS011;63250;45.642;13.758;2022-09-09T14:30:16;2.50;;;1.92;;
15608;SDS011;63250;45.642;13.758;2022-09-09T14:32:42;4.18;;;2.10;;
15608;SDS011;63250;45.642;13.758;2022-09-09T14:35:07;4.07;;;2.40;;
15608;SDS011;63250;45.642;13.758;2022-09-09T14:37:33;2.67;;;2.05;;
15608;SDS011;63250;45.642;13.758;2022-09-09T14:39:59;2.92;;;2.25;;
15608;SDS011;63250;45.642;13.758;2022-09-09T14:42:25;2.55;;;2.30;;
15608;SDS011;63250;45.642;13.758;2022-09-09T14:44:51;3.35;;;2.25;;
15608;SDS011;63250;45.642;13.758;2022-09-09T14:47:17;3.25;;;2.30;;
15608;SDS011;63250;45.642;13.758;2022-09-09T14:49:43;2.40;;;2.20;;
15608;SDS011;63250;45.642;13.758;2022-09-09T14:52:10;4.18;;;2.60;;
15608;SDS011;63250;45.642;13.758;2022-09-09T14:54:36;4.15;;;2.47;;
15608;SDS011;63250;45.642;13.758;2022-09-09T14:57:02;3.13;;;2.45;;
15608;SDS011;63250;45.642;13.758;2022-09-09T14:59:28;2.78;;;2.38;;
15608;SDS011;63250;45.642;13.758;2022-09-09T15:01:53;2.45;;;2.20;;
15608;SDS011;63250;45.642;13.758;2022-09-09T15:04:19;3.47;;;2.60;;
15608;SDS011;63250;45.642;13.758;2022-09-09T15:06:45;3.92;;;2.25;;
15608;SDS011;63250;45.642;13.758;2022-09-09T15:09:13;4.18;;;2.65;;
15608;SDS011;63250;45.642;13.758;2022-09-09T15:11:39;2.58;;;2.15;;
15608;SDS011;63250;45.642;13.758;2022-09-09T15:14:05;2.38;;;2.10;;
15608;SDS011;63250;45.642;13.758;2022-09-09T15:16:32;3.53;;;2.40;;
15608;SDS011;63250;45.642;13.758;2022-09-09T15:18:59;4.40;;;2.22;;
15608;SDS011;63250;45.642;13.758;2022-09-09T15:21:27;3.30;;;2.28;;
15608;SDS011;63250;45.642;13.758;2022-09-09T15:23:54;3.85;;;2.30;;
15608;SDS011;63250;45.642;13.758;2022-09-09T15:26:20;4.60;;;2.33;;
15608;SDS011;63250;45.642;13.758;2022-09-09T15:28:47;3.90;;;2.40;;
15608;SDS011;63250;45.642;13.758;2022-09-09T15:31:20;5.32;;;2.53;;
15608;SDS011;63250;45.642;13.758;2022-09-09T15:33:50;2.95;;;2.20;;
15608;SDS011;63250;45.642;13.758;2022-09-09T15:38:44;3.60;;;2.38;;
15608;SDS011;63250;45.642;13.758;2022-09-09T15:41:11;5.95;;;2.25;;
15608;SDS011;63250;45.642;13.758;2022-09-09T15:43:43;12.55;;;5.80;;
15608;SDS011;63250;45.642;13.758;2022-09-09T15:48:43;20.00;;;4.40;;
15608;SDS011;63250;45.642;13.758;2022-09-09T15:51:09;8.30;;;3.80;;
15608;SDS011;63250;45.642;13.758;2022-09-09T15:53:40;4.03;;;2.50;;
15608;SDS011;63250;45.642;13.758;2022-09-09T15:56:06;5.00;;;2.45;;
15608;SDS011;63250;45.642;13.758;2022-09-09T15:58:32;4.63;;;2.33;;
15608;SDS011;63250;45.642;13.758;2022-09-09T16:01:05;6.95;;;3.15;;
15608;SDS011;63250;45.642;13.758;2022-09-09T16:03:35;5.03;;;2.10;;
15608;SDS011;63250;45.642;13.758;2022-09-09T16:06:02;4.25;;;2.63;;
15608;SDS011;63250;45.642;13.758;2022-09-09T16:08:36;4.88;;;2.40;;
15608;SDS011;63250;45.642;13.758;2022-09-09T16:11:11;6.65;;;2.50;;
15608;SDS011;63250;45.642;13.758;2022-09-09T16:13:40;3.20;;;2.70;;
15608;SDS011;63250;45.642;13.758;2022-09-09T16:16:10;4.43;;;2.70;;
15608;SDS011;63250;45.642;13.758;2022-09-09T16:18:38;5.05;;;3.00;;
15608;SDS011;63250;45.642;13.758;2022-09-09T16:21:05;2.90;;;2.58;;
15608;SDS011;63250;45.642;13.758;2022-09-09T16:23:33;6.38;;;2.78;;
15608;SDS011;63250;45.642;13.758;2022-09-09T16:25:59;3.85;;;3.05;;
15608;SDS011;63250;45.642;13.758;2022-09-09T16:28:26;5.47;;;2.97;;
15608;SDS011;63250;45.642;13.758;2022-09-09T16:30:52;5.75;;;2.47;;
15608;SDS011;63250;45.642;13.758;2022-09-09T16:33:18;3.42;;;2.50;;
15608;SDS011;63250;45.642;13.758;2022-09-09T16:35:44;3.10;;;2.78;;
15608;SDS011;63250;45.642;13.758;2022-09-09T16:38:10;4.22;;;2.92;;
15608;SDS011;63250;45.642;13.758;2022-09-09T16:40:36;3.47;;;2.13;;
15608;SDS011;63250;45.642;13.758;2022-09-09T16:43:03;2.63;;;2.40;;
15608;SDS011;63250;45.642;13.758;2022-09-09T16:45:30;4.72;;;2.40;;
15608;SDS011;63250;45.642;13.758;2022-09-09T16:47:57;3.45;;;2.40;;
15608;SDS011;63250;45.642;13.758;2022-09-09T16:50:23;5.00;;;2.70;;
15608;SDS011;63250;45.642;13.758;2022-09-09T16:52:49;2.60;;;2.20;;
15608;SDS011;63250;45.642;13.758;2022-09-09T16:55:15;2.47;;;2.28;;
15608;SDS011;63250;45.642;13.758;2022-09-09T16:57:41;3.20;;;2.65;;
15608;SDS011;63250;45.642;13.758;2022-09-09T17:00:07;3.10;;;2.50;;
15608;SDS011;63250;45.642;13.758;2022-09-09T17:02:33;6.20;;;2.33;;
15608;SDS011;63250;45.642;13.758;2022-09-09T17:04:59;3.25;;;2.45;;
15608;SDS011;63250;45.642;13.758;2022-09-09T17:07:25;3.85;;;2.05;;
15608;SDS011;63250;45.642;13.758;2022-09-09T17:09:50;2.60;;;2.30;;
15608;SDS011;63250;45.642;13.758;2022-09-09T17:12:19;3.75;;;2.20;;
15608;SDS011;63250;45.642;13.758;2022-09-09T17:14:46;2.92;;;2.20;;
15608;SDS011;63250;45.642;13.758;2022-09-09T17:17:12;3.58;;;2.30;;